sensor_id;sensor_type;location;lat;lon;timestamp;temperature;humidity
13721;DHT22;6932;51.438;5.470;2023-03-01T00:01:03;10.20;55.40
13721;DHT22;6932;51.438;5.470;2023-03-01T00:03:30;10.20;55.40
13721;DHT22;6932;51.438;5.470;2023-03-01T00:05:57;10.10;55.30
13721;DHT22;6932;51.438;5.470;2023-03-01T00:08:24;10.10;55.20
13721;DHT22;6932;51.438;5.470;2023-03-01T00:11:13;10.10;55.20
13721;DHT22;6932;51.438;5.470;2023-03-01T00:13:40;10.10;55.30
13721;DHT22;6932;51.438;5.470;2023-03-01T00:16:09;10.10;55.20
13721;DHT22;6932;51.438;5.470;2023-03-01T00:18:36;10.10;55.30
13721;DHT22;6932;51.438;5.470;2023-03-01T00:21:02;10.10;55.40
13721;DHT22;6932;51.438;5.470;2023-03-01T00:23:28;10.00;55.40
13721;DHT22;6932;51.438;5.470;2023-03-01T00:25:54;10.00;55.50
13721;DHT22;6932;51.438;5.470;2023-03-01T00:28:20;10.00;55.50
13721;DHT22;6932;51.438;5.470;2023-03-01T00:30:47;10.00;55.60
13721;DHT22;6932;51.438;5.470;2023-03-01T00:33:13;9.90;55.50
13721;DHT22;6932;51.438;5.470;2023-03-01T00:35:38;9.90;55.50
13721;DHT22;6932;51.438;5.470;2023-03-01T00:38:05;9.90;55.60
13721;DHT22;6932;51.438;5.470;2023-03-01T00:40:33;10.00;55.60
13721;DHT22;6932;51.438;5.470;2023-03-01T00:43:01;9.90;55.60
13721;DHT22;6932;51.438;5.470;2023-03-01T00:45:28;9.90;55.60
13721;DHT22;6932;51.438;5.470;2023-03-01T00:47:54;9.90;55.70
13721;DHT22;6932;51.438;5.470;2023-03-01T00:50:20;9.90;55.80
13721;DHT22;6932;51.438;5.470;2023-03-01T00:52:46;9.90;55.80
13721;DHT22;6932;51.438;5.470;2023-03-01T00:55:12;9.90;56.00
13721;DHT22;6932;51.438;5.470;2023-03-01T00:57:38;9.90;56.00
13721;DHT22;6932;51.438;5.470;2023-03-01T01:00:05;9.80;55.90
13721;DHT22;6932;51.438;5.470;2023-03-01T01:02:33;9.80;56.10
13721;DHT22;6932;51.438;5.470;2023-03-01T01:04:59;9.80;56.10
13721;DHT22;6932;51.438;5.470;2023-03-01T01:07:25;9.80;56.10
13721;DHT22;6932;51.438;5.470;2023-03-01T01:09:51;9.80;56.20
13721;DHT22;6932;51.438;5.470;2023-03-01T01:12:16;9.80;56.20
13721;DHT22;6932;51.438;5.470;2023-03-01T01:14:42;9.80;56.40
13721;DHT22;6932;51.438;5.470;2023-03-01T01:17:08;9.80;56.30
13721;DHT22;6932;51.438;5.470;2023-03-01T01:19:34;9.70;56.20
13721;DHT22;6932;51.438;5.470;2023-03-01T01:22:00;9.70;56.30
13721;DHT22;6932;51.438;5.470;2023-03-01T01:24:25;9.70;56.40
13721;DHT22;6932;51.438;5.470;2023-03-01T01:26:51;9.70;56.50
13721;DHT22;6932;51.438;5.470;2023-03-01T01:29:17;9.70;56.50
13721;DHT22;6932;51.438;5.470;2023-03-01T01:31:43;9.70;56.60
13721;DHT22;6932;51.438;5.470;2023-03-01T01:34:14;9.70;56.60
13721;DHT22;6932;51.438;5.470;2023-03-01T01:36:43;9.60;56.70
13721;DHT22;6932;51.438;5.470;2023-03-01T01:39:09;9.60;56.70
13721;DHT22;6932;51.438;5.470;2023-03-01T01:41:41;9.60;56.70
13721;DHT22;6932;51.438;5.470;2023-03-01T01:47:04;9.50;57.50
13721;DHT22;6932;51.438;5.470;2023-03-01T01:52:23;9.50;56.90
13721;DHT22;6932;51.438;5.470;2023-03-01T01:57:48;9.40;57.00
13721;DHT22;6932;51.438;5.470;2023-03-01T02:00:33;9.40;57.10
13721;DHT22;6932;51.438;5.470;2023-03-01T02:03:17;9.40;57.20
13721;DHT22;6932;51.438;5.470;2023-03-01T02:06:06;9.40;57.20
13721;DHT22;6932;51.438;5.470;2023-03-01T02:08:40;9.40;57.30
13721;DHT22;6932;51.438;5.470;2023-03-01T02:11:09;9.40;57.30
13721;DHT22;6932;51.438;5.470;2023-03-01T02:13:36;9.40;57.40
13721;DHT22;6932;51.438;5.470;2023-03-01T02:16:05;9.30;57.40
13721;DHT22;6932;51.438;5.470;2023-03-01T02:18:34;9.30;57.40
13721;DHT22;6932;51.438;5.470;2023-03-01T02:27:16;9.20;57.50
13721;DHT22;6932;51.438;5.470;2023-03-01T02:29:43;9.30;57.60
13721;DHT22;6932;51.438;5.470;2023-03-01T02:32:11;9.20;57.60
13721;DHT22;6932;51.438;5.470;2023-03-01T02:34:38;9.20;57.60
13721;DHT22;6932;51.438;5.470;2023-03-01T02:37:13;9.20;57.70
13721;DHT22;6932;51.438;5.470;2023-03-01T02:39:52;9.20;57.70
13721;DHT22;6932;51.438;5.470;2023-03-01T02:42:30;9.20;57.70
13721;DHT22;6932;51.438;5.470;2023-03-01T02:44:59;9.20;57.80
13721;DHT22;6932;51.438;5.470;2023-03-01T02:47:25;9.20;57.80
13721;DHT22;6932;51.438;5.470;2023-03-01T02:49:50;9.20;57.80
13721;DHT22;6932;51.438;5.470;2023-03-01T02:55:18;9.10;57.70
13721;DHT22;6932;51.438;5.470;2023-03-01T02:57:46;9.10;57.80
13721;DHT22;6932;51.438;5.470;2023-03-01T03:00:20;9.10;57.80
13721;DHT22;6932;51.438;5.470;2023-03-01T03:02:52;9.10;58.00
13721;DHT22;6932;51.438;5.470;2023-03-01T03:05:21;9.10;58.00
13721;DHT22;6932;51.438;5.470;2023-03-01T03:07:51;9.10;58.10
13721;DHT22;6932;51.438;5.470;2023-03-01T03:10:27;9.10;58.10
13721;DHT22;6932;51.438;5.470;2023-03-01T03:13:01;9.00;58.10
13721;DHT22;6932;51.438;5.470;2023-03-01T03:15:38;9.00;58.10
13721;DHT22;6932;51.438;5.470;2023-03-01T03:18:08;9.00;58.20
13721;DHT22;6932;51.438;5.470;2023-03-01T03:20:43;9.00;58.30
13721;DHT22;6932;51.438;5.470;2023-03-01T03:23:10;9.00;58.30
13721;DHT22;6932;51.438;5.470;2023-03-01T03:25:37;9.00;58.30
13721;DHT22;6932;51.438;5.470;2023-03-01T03:28:04;9.00;58.30
13721;DHT22;6932;51.438;5.470;2023-03-01T03:30:36;9.00;58.30
13721;DHT22;6932;51.438;5.470;2023-03-01T03:33:05;9.00;58.40
13721;DHT22;6932;51.438;5.470;2023-03-01T03:35:39;8.90;58.40
13721;DHT22;6932;51.438;5.470;2023-03-01T03:38:09;8.90;58.40
13721;DHT22;6932;51.438;5.470;2023-03-01T03:40:43;8.90;58.40
13721;DHT22;6932;51.438;5.470;2023-03-01T03:43:20;8.90;58.50
13721;DHT22;6932;51.438;5.470;2023-03-01T03:45:49;8.90;58.50
13721;DHT22;6932;51.438;5.470;2023-03-01T03:48:16;8.90;58.60
13721;DHT22;6932;51.438;5.470;2023-03-01T03:50:51;8.90;58.50
13721;DHT22;6932;51.438;5.470;2023-03-01T03:53:20;8.90;58.70
13721;DHT22;6932;51.438;5.470;2023-03-01T03:55:47;8.90;58.60
13721;DHT22;6932;51.438;5.470;2023-03-01T03:58:15;8.80;58.60
13721;DHT22;6932;51.438;5.470;2023-03-01T04:00:43;8.80;58.60
13721;DHT22;6932;51.438;5.470;2023-03-01T04:03:12;8.80;58.60
13721;DHT22;6932;51.438;5.470;2023-03-01T04:05:40;8.80;58.70
13721;DHT22;6932;51.438;5.470;2023-03-01T04:08:07;8.80;58.70
13721;DHT22;6932;51.438;5.470;2023-03-01T04:10:36;8.80;58.70
13721;DHT22;6932;51.438;5.470;2023-03-01T04:13:10;8.80;58.80
13721;DHT22;6932;51.438;5.470;2023-03-01T04:15:38;8.70;58.90
13721;DHT22;6932;51.438;5.470;2023-03-01T04:18:05;8.70;58.80
13721;DHT22;6932;51.438;5.470;2023-03-01T04:20:34;8.70;58.90
13721;DHT22;6932;51.438;5.470;2023-03-01T04:23:06;8.70;58.90
13721;DHT22;6932;51.438;5.470;2023-03-01T04:28:25;8.70;59.00
13721;DHT22;6932;51.438;5.470;2023-03-01T04:31:15;8.60;58.90
13721;DHT22;6932;51.438;5.470;2023-03-01T04:33:52;8.60;58.90
13721;DHT22;6932;51.438;5.470;2023-03-01T04:36:21;8.60;59.00
13721;DHT22;6932;51.438;5.470;2023-03-01T04:38:51;8.60;59.10
13721;DHT22;6932;51.438;5.470;2023-03-01T04:41:19;8.60;59.10
13721;DHT22;6932;51.438;5.470;2023-03-01T04:43:46;8.60;59.10
13721;DHT22;6932;51.438;5.470;2023-03-01T04:46:16;8.60;59.20
13721;DHT22;6932;51.438;5.470;2023-03-01T04:48:44;8.50;59.30
13721;DHT22;6932;51.438;5.470;2023-03-01T04:51:12;8.50;59.30
13721;DHT22;6932;51.438;5.470;2023-03-01T04:53:39;8.50;59.30
13721;DHT22;6932;51.438;5.470;2023-03-01T04:56:06;8.50;59.50
13721;DHT22;6932;51.438;5.470;2023-03-01T04:58:32;8.50;59.50
13721;DHT22;6932;51.438;5.470;2023-03-01T05:00:59;8.50;59.60
13721;DHT22;6932;51.438;5.470;2023-03-01T05:03:24;8.50;59.60
13721;DHT22;6932;51.438;5.470;2023-03-01T05:05:51;8.50;59.60
13721;DHT22;6932;51.438;5.470;2023-03-01T05:08:18;8.50;59.70
13721;DHT22;6932;51.438;5.470;2023-03-01T05:10:53;8.50;59.70
13721;DHT22;6932;51.438;5.470;2023-03-01T05:13:20;8.40;59.70
13721;DHT22;6932;51.438;5.470;2023-03-01T05:16:00;8.40;59.60
13721;DHT22;6932;51.438;5.470;2023-03-01T05:18:30;8.40;59.60
13721;DHT22;6932;51.438;5.470;2023-03-01T05:21:09;8.40;59.60
13721;DHT22;6932;51.438;5.470;2023-03-01T05:23:37;8.40;59.70
13721;DHT22;6932;51.438;5.470;2023-03-01T05:26:05;8.40;59.60
13721;DHT22;6932;51.438;5.470;2023-03-01T05:28:32;8.40;59.60
13721;DHT22;6932;51.438;5.470;2023-03-01T05:30:59;8.40;59.60
13721;DHT22;6932;51.438;5.470;2023-03-01T05:33:25;8.40;59.60
13721;DHT22;6932;51.438;5.470;2023-03-01T05:35:51;8.40;59.60
13721;DHT22;6932;51.438;5.470;2023-03-01T05:38:19;8.40;59.60
13721;DHT22;6932;51.438;5.470;2023-03-01T05:40:47;8.40;59.60
13721;DHT22;6932;51.438;5.470;2023-03-01T05:43:15;8.40;59.70
13721;DHT22;6932;51.438;5.470;2023-03-01T05:45:43;8.30;59.60
13721;DHT22;6932;51.438;5.470;2023-03-01T05:48:10;8.30;59.60
13721;DHT22;6932;51.438;5.470;2023-03-01T05:50:39;8.40;59.70
13721;DHT22;6932;51.438;5.470;2023-03-01T05:55:41;8.40;59.80
13721;DHT22;6932;51.438;5.470;2023-03-01T05:58:11;8.30;59.70
13721;DHT22;6932;51.438;5.470;2023-03-01T06:00:40;8.30;59.70
13721;DHT22;6932;51.438;5.470;2023-03-01T06:03:06;8.40;59.80
13721;DHT22;6932;51.438;5.470;2023-03-01T06:05:32;8.30;59.70
13721;DHT22;6932;51.438;5.470;2023-03-01T06:08:01;8.40;59.80
13721;DHT22;6932;51.438;5.470;2023-03-01T06:10:28;8.30;59.80
13721;DHT22;6932;51.438;5.470;2023-03-01T06:12:55;8.30;59.70
13721;DHT22;6932;51.438;5.470;2023-03-01T06:15:21;8.30;59.70
13721;DHT22;6932;51.438;5.470;2023-03-01T06:17:48;8.30;59.70
13721;DHT22;6932;51.438;5.470;2023-03-01T06:20:16;8.40;59.80
13721;DHT22;6932;51.438;5.470;2023-03-01T06:22:45;8.30;59.80
13721;DHT22;6932;51.438;5.470;2023-03-01T06:25:14;8.30;59.80
13721;DHT22;6932;51.438;5.470;2023-03-01T06:27:41;8.30;59.80
13721;DHT22;6932;51.438;5.470;2023-03-01T06:30:09;8.30;59.80
13721;DHT22;6932;51.438;5.470;2023-03-01T06:32:37;8.20;59.80
13721;DHT22;6932;51.438;5.470;2023-03-01T06:35:08;8.30;59.90
13721;DHT22;6932;51.438;5.470;2023-03-01T06:37:38;8.20;60.50
13721;DHT22;6932;51.438;5.470;2023-03-01T06:40:05;8.20;60.00
13721;DHT22;6932;51.438;5.470;2023-03-01T06:42:34;8.20;60.00
13721;DHT22;6932;51.438;5.470;2023-03-01T06:45:01;8.20;60.00
13721;DHT22;6932;51.438;5.470;2023-03-01T06:47:28;8.20;60.10
13721;DHT22;6932;51.438;5.470;2023-03-01T06:49:53;8.20;60.20
13721;DHT22;6932;51.438;5.470;2023-03-01T06:52:19;8.20;60.40
13721;DHT22;6932;51.438;5.470;2023-03-01T06:54:45;8.20;60.40
13721;DHT22;6932;51.438;5.470;2023-03-01T06:57:10;8.20;60.50
13721;DHT22;6932;51.438;5.470;2023-03-01T06:59:36;8.20;60.50
13721;DHT22;6932;51.438;5.470;2023-03-01T07:02:02;8.30;60.50
13721;DHT22;6932;51.438;5.470;2023-03-01T07:04:28;8.30;60.50
13721;DHT22;6932;51.438;5.470;2023-03-01T07:06:54;8.40;60.60
13721;DHT22;6932;51.438;5.470;2023-03-01T07:09:24;8.40;60.60
13721;DHT22;6932;51.438;5.470;2023-03-01T07:11:50;8.50;60.60
13721;DHT22;6932;51.438;5.470;2023-03-01T07:14:16;8.50;60.50
13721;DHT22;6932;51.438;5.470;2023-03-01T07:16:42;8.60;60.30
13721;DHT22;6932;51.438;5.470;2023-03-01T07:19:07;8.70;60.30
13721;DHT22;6932;51.438;5.470;2023-03-01T07:21:33;8.80;60.20
13721;DHT22;6932;51.438;5.470;2023-03-01T07:23:59;8.90;60.10
13721;DHT22;6932;51.438;5.470;2023-03-01T07:26:24;9.00;60.00
13721;DHT22;6932;51.438;5.470;2023-03-01T07:28:50;9.10;60.00
13721;DHT22;6932;51.438;5.470;2023-03-01T07:31:16;9.20;59.90
13721;DHT22;6932;51.438;5.470;2023-03-01T07:33:42;9.20;59.70
13721;DHT22;6932;51.438;5.470;2023-03-01T07:36:08;9.40;59.70
13721;DHT22;6932;51.438;5.470;2023-03-01T07:38:34;9.40;59.50
13721;DHT22;6932;51.438;5.470;2023-03-01T07:41:02;9.50;59.40
13721;DHT22;6932;51.438;5.470;2023-03-01T07:43:29;9.60;59.30
13721;DHT22;6932;51.438;5.470;2023-03-01T07:45:59;9.70;59.20
13721;DHT22;6932;51.438;5.470;2023-03-01T07:48:25;9.80;59.10
13721;DHT22;6932;51.438;5.470;2023-03-01T07:50:51;10.00;59.00
13721;DHT22;6932;51.438;5.470;2023-03-01T07:53:17;10.00;58.70
13721;DHT22;6932;51.438;5.470;2023-03-01T07:55:43;10.20;58.70
13721;DHT22;6932;51.438;5.470;2023-03-01T07:58:08;10.20;58.40
13721;DHT22;6932;51.438;5.470;2023-03-01T08:00:35;10.30;58.10
13721;DHT22;6932;51.438;5.470;2023-03-01T08:03:01;10.40;58.00
13721;DHT22;6932;51.438;5.470;2023-03-01T08:05:28;10.40;57.90
13721;DHT22;6932;51.438;5.470;2023-03-01T08:07:54;10.50;57.70
13721;DHT22;6932;51.438;5.470;2023-03-01T08:10:20;10.60;57.60
13721;DHT22;6932;51.438;5.470;2023-03-01T08:12:46;10.60;57.60
13721;DHT22;6932;51.438;5.470;2023-03-01T08:15:11;10.70;57.60
13721;DHT22;6932;51.438;5.470;2023-03-01T08:17:40;10.70;57.50
13721;DHT22;6932;51.438;5.470;2023-03-01T08:20:06;10.80;57.30
13721;DHT22;6932;51.438;5.470;2023-03-01T08:22:32;10.90;57.30
13721;DHT22;6932;51.438;5.470;2023-03-01T08:24:58;10.90;56.50
13721;DHT22;6932;51.438;5.470;2023-03-01T08:27:24;10.90;56.40
13721;DHT22;6932;51.438;5.470;2023-03-01T08:29:49;10.80;56.30
13721;DHT22;6932;51.438;5.470;2023-03-01T08:32:15;10.60;56.60
13721;DHT22;6932;51.438;5.470;2023-03-01T08:34:41;10.50;56.50
13721;DHT22;6932;51.438;5.470;2023-03-01T08:37:06;10.40;56.80
13721;DHT22;6932;51.438;5.470;2023-03-01T08:39:32;10.30;57.00
13721;DHT22;6932;51.438;5.470;2023-03-01T08:41:58;10.20;57.10
13721;DHT22;6932;51.438;5.470;2023-03-01T08:44:24;10.20;57.50
13721;DHT22;6932;51.438;5.470;2023-03-01T08:46:50;10.20;57.70
13721;DHT22;6932;51.438;5.470;2023-03-01T08:49:19;10.30;57.90
13721;DHT22;6932;51.438;5.470;2023-03-01T08:51:46;10.40;57.80
13721;DHT22;6932;51.438;5.470;2023-03-01T08:54:15;10.60;57.70
13721;DHT22;6932;51.438;5.470;2023-03-01T08:56:43;10.80;57.40
13721;DHT22;6932;51.438;5.470;2023-03-01T08:59:14;11.00;57.10
13721;DHT22;6932;51.438;5.470;2023-03-01T09:01:41;11.20;56.90
13721;DHT22;6932;51.438;5.470;2023-03-01T09:04:12;11.40;56.80
13721;DHT22;6932;51.438;5.470;2023-03-01T09:06:38;11.50;56.50
13721;DHT22;6932;51.438;5.470;2023-03-01T09:09:05;11.70;56.00
13721;DHT22;6932;51.438;5.470;2023-03-01T09:11:32;11.90;55.90
13721;DHT22;6932;51.438;5.470;2023-03-01T09:13:58;12.00;55.60
13721;DHT22;6932;51.438;5.470;2023-03-01T09:16:24;12.20;55.30
13721;DHT22;6932;51.438;5.470;2023-03-01T09:18:54;12.30;55.20
13721;DHT22;6932;51.438;5.470;2023-03-01T09:21:22;12.40;54.90
13721;DHT22;6932;51.438;5.470;2023-03-01T09:23:48;12.60;54.80
13721;DHT22;6932;51.438;5.470;2023-03-01T09:26:17;12.70;54.60
13721;DHT22;6932;51.438;5.470;2023-03-01T09:28:46;12.80;54.40
13721;DHT22;6932;51.438;5.470;2023-03-01T09:31:13;12.80;54.20
13721;DHT22;6932;51.438;5.470;2023-03-01T09:33:40;12.90;54.00
13721;DHT22;6932;51.438;5.470;2023-03-01T09:36:11;13.00;54.40
13721;DHT22;6932;51.438;5.470;2023-03-01T09:38:38;13.10;53.70
13721;DHT22;6932;51.438;5.470;2023-03-01T09:47:30;13.40;53.00
13721;DHT22;6932;51.438;5.470;2023-03-01T09:50:16;13.50;52.30
13721;DHT22;6932;51.438;5.470;2023-03-01T09:53:10;13.50;52.00
13721;DHT22;6932;51.438;5.470;2023-03-01T09:56:00;13.50;51.60
13721;DHT22;6932;51.438;5.470;2023-03-01T09:58:51;13.60;51.80
13721;DHT22;6932;51.438;5.470;2023-03-01T10:09:38;13.60;51.30
13721;DHT22;6932;51.438;5.470;2023-03-01T10:12:15;13.50;50.70
13721;DHT22;6932;51.438;5.470;2023-03-01T10:15:20;13.50;51.00
13721;DHT22;6932;51.438;5.470;2023-03-01T10:17:57;13.50;51.60
13721;DHT22;6932;51.438;5.470;2023-03-01T10:20:45;13.60;51.20
13721;DHT22;6932;51.438;5.470;2023-03-01T10:23:23;13.60;51.00
13721;DHT22;6932;51.438;5.470;2023-03-01T10:26:03;13.60;51.60
13721;DHT22;6932;51.438;5.470;2023-03-01T10:29:04;13.40;50.70
13721;DHT22;6932;51.438;5.470;2023-03-01T10:31:49;13.50;51.20
13721;DHT22;6932;51.438;5.470;2023-03-01T10:34:19;13.60;51.10
13721;DHT22;6932;51.438;5.470;2023-03-01T10:36:50;13.70;51.10
13721;DHT22;6932;51.438;5.470;2023-03-01T10:39:23;13.80;51.10
13721;DHT22;6932;51.438;5.470;2023-03-01T10:42:01;13.80;51.00
13721;DHT22;6932;51.438;5.470;2023-03-01T10:44:48;13.90;51.00
13721;DHT22;6932;51.438;5.470;2023-03-01T10:47:20;13.90;50.80
13721;DHT22;6932;51.438;5.470;2023-03-01T10:52:25;14.10;50.10
13721;DHT22;6932;51.438;5.470;2023-03-01T10:54:56;14.10;50.20
13721;DHT22;6932;51.438;5.470;2023-03-01T10:57:38;14.20;50.10
13721;DHT22;6932;51.438;5.470;2023-03-01T11:00:21;14.20;49.90
13721;DHT22;6932;51.438;5.470;2023-03-01T11:03:01;14.20;50.00
13721;DHT22;6932;51.438;5.470;2023-03-01T11:05:29;14.20;49.80
13721;DHT22;6932;51.438;5.470;2023-03-01T11:07:59;14.20;49.60
13721;DHT22;6932;51.438;5.470;2023-03-01T11:10:32;14.20;49.40
13721;DHT22;6932;51.438;5.470;2023-03-01T11:13:16;14.20;49.50
13721;DHT22;6932;51.438;5.470;2023-03-01T11:16:03;14.20;49.50
13721;DHT22;6932;51.438;5.470;2023-03-01T11:18:33;14.10;49.60
13721;DHT22;6932;51.438;5.470;2023-03-01T11:20:59;14.10;49.90
13721;DHT22;6932;51.438;5.470;2023-03-01T11:23:29;14.10;49.70
13721;DHT22;6932;51.438;5.470;2023-03-01T11:25:59;14.20;49.60
13721;DHT22;6932;51.438;5.470;2023-03-01T11:28:33;14.20;49.20
13721;DHT22;6932;51.438;5.470;2023-03-01T11:31:06;14.20;49.30
13721;DHT22;6932;51.438;5.470;2023-03-01T11:36:35;14.30;49.10
13721;DHT22;6932;51.438;5.470;2023-03-01T11:39:34;14.20;49.10
13721;DHT22;6932;51.438;5.470;2023-03-01T11:42:18;14.20;49.20
13721;DHT22;6932;51.438;5.470;2023-03-01T11:44:52;14.20;48.90
13721;DHT22;6932;51.438;5.470;2023-03-01T12:08:14;14.20;49.10
13721;DHT22;6932;51.438;5.470;2023-03-01T12:17:05;14.30;48.90
13721;DHT22;6932;51.438;5.470;2023-03-01T12:22:26;14.20;49.40
13721;DHT22;6932;51.438;5.470;2023-03-01T12:33:57;14.30;49.20
13721;DHT22;6932;51.438;5.470;2023-03-01T12:51:59;14.30;49.00
13721;DHT22;6932;51.438;5.470;2023-03-01T12:54:31;14.30;48.80
13721;DHT22;6932;51.438;5.470;2023-03-01T12:57:25;14.30;48.90
13721;DHT22;6932;51.438;5.470;2023-03-01T13:11:22;14.00;49.30
13721;DHT22;6932;51.438;5.470;2023-03-01T13:13:49;14.00;49.10
13721;DHT22;6932;51.438;5.470;2023-03-01T13:16:43;13.90;49.20
13721;DHT22;6932;51.438;5.470;2023-03-01T13:21:44;13.90;49.30
13721;DHT22;6932;51.438;5.470;2023-03-01T13:24:39;13.90;49.40
13721;DHT22;6932;51.438;5.470;2023-03-01T13:30:12;13.90;49.90
13721;DHT22;6932;51.438;5.470;2023-03-01T13:35:58;13.80;49.90
13721;DHT22;6932;51.438;5.470;2023-03-01T13:38:47;13.90;49.40
13721;DHT22;6932;51.438;5.470;2023-03-01T13:47:16;13.90;49.40
13721;DHT22;6932;51.438;5.470;2023-03-01T13:49:56;13.90;49.50
13721;DHT22;6932;51.438;5.470;2023-03-01T13:54:56;13.90;49.40
13721;DHT22;6932;51.438;5.470;2023-03-01T13:57:28;13.90;49.40
13721;DHT22;6932;51.438;5.470;2023-03-01T13:59:59;13.90;49.30
13721;DHT22;6932;51.438;5.470;2023-03-01T14:02:25;13.90;49.40
13721;DHT22;6932;51.438;5.470;2023-03-01T14:05:00;13.80;49.60
13721;DHT22;6932;51.438;5.470;2023-03-01T14:07:28;13.90;50.20
13721;DHT22;6932;51.438;5.470;2023-03-01T14:10:01;13.90;49.70
13721;DHT22;6932;51.438;5.470;2023-03-01T14:12:52;13.90;49.70
13721;DHT22;6932;51.438;5.470;2023-03-01T14:15:39;13.90;49.60
13721;DHT22;6932;51.438;5.470;2023-03-01T14:18:23;13.90;49.30
13721;DHT22;6932;51.438;5.470;2023-03-01T14:20:54;14.00;49.40
13721;DHT22;6932;51.438;5.470;2023-03-01T14:23:22;14.00;49.40
13721;DHT22;6932;51.438;5.470;2023-03-01T14:25:57;14.00;49.40
13721;DHT22;6932;51.438;5.470;2023-03-01T14:28:25;13.90;49.40
13721;DHT22;6932;51.438;5.470;2023-03-01T14:30:58;14.00;49.50
13721;DHT22;6932;51.438;5.470;2023-03-01T14:33:34;14.00;49.70
13721;DHT22;6932;51.438;5.470;2023-03-01T14:36:06;14.00;49.90
13721;DHT22;6932;51.438;5.470;2023-03-01T14:38:42;14.00;49.90
13721;DHT22;6932;51.438;5.470;2023-03-01T14:41:14;14.00;49.70
13721;DHT22;6932;51.438;5.470;2023-03-01T14:43:49;14.00;49.70
13721;DHT22;6932;51.438;5.470;2023-03-01T14:49:10;14.00;49.90
13721;DHT22;6932;51.438;5.470;2023-03-01T14:51:42;14.00;49.80
13721;DHT22;6932;51.438;5.470;2023-03-01T14:54:25;14.00;49.80
13721;DHT22;6932;51.438;5.470;2023-03-01T14:57:12;14.00;50.30
13721;DHT22;6932;51.438;5.470;2023-03-01T14:59:41;14.00;49.60
13721;DHT22;6932;51.438;5.470;2023-03-01T15:02:13;14.00;49.50
13721;DHT22;6932;51.438;5.470;2023-03-01T15:04:47;14.00;49.40
13721;DHT22;6932;51.438;5.470;2023-03-01T15:07:17;14.00;49.30
13721;DHT22;6932;51.438;5.470;2023-03-01T15:09:44;13.90;48.90
13721;DHT22;6932;51.438;5.470;2023-03-01T15:12:36;14.00;48.90
13721;DHT22;6932;51.438;5.470;2023-03-01T15:18:05;13.90;48.90
13721;DHT22;6932;51.438;5.470;2023-03-01T15:20:49;13.90;48.80
13721;DHT22;6932;51.438;5.470;2023-03-01T15:23:25;13.90;48.90
13721;DHT22;6932;51.438;5.470;2023-03-01T15:25:54;13.90;49.10
13721;DHT22;6932;51.438;5.470;2023-03-01T15:28:30;13.90;49.10
13721;DHT22;6932;51.438;5.470;2023-03-01T15:31:03;13.90;48.80
13721;DHT22;6932;51.438;5.470;2023-03-01T15:36:50;13.90;48.90
13721;DHT22;6932;51.438;5.470;2023-03-01T15:39:56;13.90;49.00
13721;DHT22;6932;51.438;5.470;2023-03-01T15:47:50;13.50;49.90
13721;DHT22;6932;51.438;5.470;2023-03-01T15:50:28;13.60;49.40
13721;DHT22;6932;51.438;5.470;2023-03-01T15:52:58;13.70;48.90
13721;DHT22;6932;51.438;5.470;2023-03-01T15:55:27;13.80;48.80
13721;DHT22;6932;51.438;5.470;2023-03-01T15:58:17;13.80;48.60
13721;DHT22;6932;51.438;5.470;2023-03-01T16:00:48;13.80;48.60
13721;DHT22;6932;51.438;5.470;2023-03-01T16:03:21;13.90;48.50
13721;DHT22;6932;51.438;5.470;2023-03-01T16:05:49;13.90;48.50
13721;DHT22;6932;51.438;5.470;2023-03-01T16:08:17;13.80;48.50
13721;DHT22;6932;51.438;5.470;2023-03-01T16:10:44;13.80;49.10
13721;DHT22;6932;51.438;5.470;2023-03-01T16:13:13;13.80;48.40
13721;DHT22;6932;51.438;5.470;2023-03-01T16:15:39;13.80;48.50
13721;DHT22;6932;51.438;5.470;2023-03-01T16:18:06;13.80;48.60
13721;DHT22;6932;51.438;5.470;2023-03-01T16:20:33;13.80;48.70
13721;DHT22;6932;51.438;5.470;2023-03-01T16:23:01;13.80;48.80
13721;DHT22;6932;51.438;5.470;2023-03-01T16:25:28;13.80;48.90
13721;DHT22;6932;51.438;5.470;2023-03-01T16:27:55;13.80;48.90
13721;DHT22;6932;51.438;5.470;2023-03-01T16:30:23;13.80;49.00
13721;DHT22;6932;51.438;5.470;2023-03-01T16:32:50;13.80;49.10
13721;DHT22;6932;51.438;5.470;2023-03-01T16:35:18;13.70;49.10
13721;DHT22;6932;51.438;5.470;2023-03-01T16:37:46;13.80;49.20
13721;DHT22;6932;51.438;5.470;2023-03-01T16:40:21;13.80;49.30
13721;DHT22;6932;51.438;5.470;2023-03-01T16:42:50;13.70;49.30
13721;DHT22;6932;51.438;5.470;2023-03-01T16:45:17;13.70;49.30
13721;DHT22;6932;51.438;5.470;2023-03-01T16:47:44;13.70;49.30
13721;DHT22;6932;51.438;5.470;2023-03-01T16:50:10;13.70;49.30
13721;DHT22;6932;51.438;5.470;2023-03-01T16:52:36;13.70;49.20
13721;DHT22;6932;51.438;5.470;2023-03-01T16:55:04;13.70;49.10
13721;DHT22;6932;51.438;5.470;2023-03-01T16:57:34;13.70;49.20
13721;DHT22;6932;51.438;5.470;2023-03-01T17:00:00;13.60;49.20
13721;DHT22;6932;51.438;5.470;2023-03-01T17:02:30;13.60;49.20
13721;DHT22;6932;51.438;5.470;2023-03-01T17:04:56;13.60;49.20
13721;DHT22;6932;51.438;5.470;2023-03-01T17:07:22;13.60;49.30
13721;DHT22;6932;51.438;5.470;2023-03-01T17:09:48;13.60;49.30
13721;DHT22;6932;51.438;5.470;2023-03-01T17:12:14;13.60;49.30
13721;DHT22;6932;51.438;5.470;2023-03-01T17:14:41;13.50;49.30
13721;DHT22;6932;51.438;5.470;2023-03-01T17:17:08;13.50;49.40
13721;DHT22;6932;51.438;5.470;2023-03-01T17:19:36;13.50;49.50
13721;DHT22;6932;51.438;5.470;2023-03-01T17:22:09;13.50;49.50
13721;DHT22;6932;51.438;5.470;2023-03-01T17:24:37;13.50;50.30
13721;DHT22;6932;51.438;5.470;2023-03-01T17:27:03;13.40;49.70
13721;DHT22;6932;51.438;5.470;2023-03-01T17:29:30;13.40;49.80
13721;DHT22;6932;51.438;5.470;2023-03-01T17:31:56;13.40;49.90
13721;DHT22;6932;51.438;5.470;2023-03-01T17:34:23;13.40;50.00
13721;DHT22;6932;51.438;5.470;2023-03-01T17:36:49;13.30;50.00
13721;DHT22;6932;51.438;5.470;2023-03-01T17:39:17;13.30;50.10
13721;DHT22;6932;51.438;5.470;2023-03-01T17:41:52;13.30;50.20
13721;DHT22;6932;51.438;5.470;2023-03-01T17:44:19;13.30;50.30
13721;DHT22;6932;51.438;5.470;2023-03-01T17:46:45;13.30;50.40
13721;DHT22;6932;51.438;5.470;2023-03-01T17:49:11;13.20;50.40
13721;DHT22;6932;51.438;5.470;2023-03-01T17:51:37;13.20;50.50
13721;DHT22;6932;51.438;5.470;2023-03-01T17:54:04;13.20;50.60
13721;DHT22;6932;51.438;5.470;2023-03-01T17:56:30;13.20;50.70
13721;DHT22;6932;51.438;5.470;2023-03-01T17:58:58;13.10;50.70
13721;DHT22;6932;51.438;5.470;2023-03-01T18:01:24;13.10;50.70
13721;DHT22;6932;51.438;5.470;2023-03-01T18:03:51;13.10;50.80
13721;DHT22;6932;51.438;5.470;2023-03-01T18:06:20;13.00;50.70
13721;DHT22;6932;51.438;5.470;2023-03-01T18:08:47;13.00;50.80
13721;DHT22;6932;51.438;5.470;2023-03-01T18:11:15;13.00;50.70
13721;DHT22;6932;51.438;5.470;2023-03-01T18:13:42;12.90;50.80
13721;DHT22;6932;51.438;5.470;2023-03-01T18:16:11;12.70;50.90
13721;DHT22;6932;51.438;5.470;2023-03-01T18:18:39;12.50;51.20
13721;DHT22;6932;51.438;5.470;2023-03-01T18:21:06;12.40;51.30
13721;DHT22;6932;51.438;5.470;2023-03-01T18:23:33;12.30;51.50
13721;DHT22;6932;51.438;5.470;2023-03-01T18:26:03;12.30;51.70
13721;DHT22;6932;51.438;5.470;2023-03-01T18:28:31;12.30;51.80
13721;DHT22;6932;51.438;5.470;2023-03-01T18:31:03;12.30;51.80
13721;DHT22;6932;51.438;5.470;2023-03-01T18:33:35;12.30;51.80